Time;durP1;ratioP1;P1;durP2;ratioP2;P2;SDS_P1;SDS_P2;PMS_P1;PMS_P2;Temp;Humidity;BMP_temperature;BMP_pressure;BME280_temperature;BME280_humidity;BME280_pressure;Samples;Min_cycle;Max_cycle;Signal;HPM_P1;HPM_P2
2021/03/15 00:01:00;;;;;;;20.77;8.57;;;5.00;99.90;;;;;;5030374;28;20214;-65
2021/03/15 00:03:26;;;;;;;18.77;8.93;;;5.00;99.90;;;;;;5031759;28;20183;-64
2021/03/15 00:05:51;;;;;;;14.63;7.37;;;5.00;99.90;;;;;;5031839;28;20200;-65
2021/03/15 00:08:18;;;;;;;16.27;8.43;;;5.10;99.90;;;;;;5031389;28;20183;-64
2021/03/15 00:10:44;;;;;;;24.70;8.13;;;5.10;99.90;;;;;;5030390;28;20180;-66
2021/03/15 00:13:10;;;;;;;11.67;7.30;;;5.20;99.90;;;;;;5031488;28;20211;-65
2021/03/15 00:15:36;;;;;;;16.07;7.00;;;5.20;99.90;;;;;;5031184;28;20199;-64
2021/03/15 00:18:03;;;;;;;15.57;6.40;;;5.20;99.90;;;;;;5031591;28;20168;-64
2021/03/15 00:20:29;;;;;;;12.33;6.90;;;5.30;99.90;;;;;;5031138;28;20172;-64
2021/03/15 00:22:55;;;;;;;13.60;7.43;;;5.30;99.90;;;;;;5030565;28;20187;-64
2021/03/15 00:25:21;;;;;;;10.57;6.43;;;5.40;99.90;;;;;;5031852;28;20203;-65
2021/03/15 00:27:47;;;;;;;18.30;8.30;;;5.40;99.90;;;;;;5031562;28;20782;-66
2021/03/15 00:30:15;;;;;;;18.80;7.57;;;5.40;99.90;;;;;;5030648;28;20182;-65
2021/03/15 00:32:42;;;;;;;14.10;6.30;;;5.40;99.90;;;;;;5030568;28;20729;-65
2021/03/15 00:35:10;;;;;;;10.87;7.03;;;5.50;99.90;;;;;;5031206;28;20196;-66
2021/03/15 00:37:37;;;;;;;16.80;7.13;;;5.50;99.90;;;;;;5031244;28;20183;-65
2021/03/15 00:40:04;;;;;;;17.37;7.20;;;5.50;99.90;;;;;;5029529;28;20172;-66
2021/03/15 00:42:30;;;;;;;17.90;8.37;;;5.50;99.90;;;;;;5031333;28;20179;-65
2021/03/15 00:44:56;;;;;;;12.20;6.50;;;5.60;99.90;;;;;;5029985;28;20628;-65
2021/03/15 00:47:21;;;;;;;16.60;7.80;;;5.60;99.90;;;;;;5031385;28;20253;-66
2021/03/15 00:49:47;;;;;;;14.37;7.73;;;5.60;99.90;;;;;;5030607;28;20241;-66
2021/03/15 00:52:12;;;;;;;19.33;7.57;;;5.60;99.90;;;;;;5030861;28;20190;-66
2021/03/15 00:54:38;;;;;;;21.43;7.57;;;5.60;99.90;;;;;;5030999;28;20187;-65
2021/03/15 00:57:04;;;;;;;13.07;7.60;;;5.60;99.90;;;;;;5031236;28;20175;-65
2021/03/15 00:59:29;;;;;;;15.70;8.53;;;5.60;99.90;;;;;;5030757;28;20184;-66
2021/03/15 01:01:56;;;;;;;19.70;7.73;;;5.60;99.90;;;;;;5030847;28;20174;-65
2021/03/15 01:04:21;;;;;;;15.67;7.90;;;5.60;99.90;;;;;;5030889;28;20258;-66
2021/03/15 01:06:47;;;;;;;16.67;8.20;;;5.60;99.90;;;;;;5030920;28;20310;-66
2021/03/15 01:09:13;;;;;;;17.90;9.40;;;5.60;99.90;;;;;;5030899;28;20656;-66
2021/03/15 01:11:40;;;;;;;16.23;8.67;;;5.70;99.90;;;;;;5030225;28;20179;-64
2021/03/15 01:14:07;;;;;;;19.10;9.23;;;5.70;99.90;;;;;;5030229;28;20213;-66
2021/03/15 01:16:32;;;;;;;17.10;8.70;;;5.70;99.90;;;;;;5030837;28;20187;-65
2021/03/15 01:18:59;;;;;;;17.17;9.33;;;5.70;99.90;;;;;;5029443;28;20191;-65
2021/03/15 01:21:25;;;;;;;20.17;8.23;;;5.70;99.90;;;;;;5030690;28;20168;-65
2021/03/15 01:23:51;;;;;;;22.40;9.00;;;5.70;99.90;;;;;;5030629;28;20236;-65
2021/03/15 01:26:17;;;;;;;28.10;9.77;;;5.70;99.90;;;;;;5030815;28;20203;-65
2021/03/15 01:28:43;;;;;;;25.10;10.00;;;5.70;99.90;;;;;;5030416;28;20619;-64
2021/03/15 01:31:08;;;;;;;20.17;10.27;;;5.70;99.90;;;;;;5030269;28;20207;-66
2021/03/15 01:33:34;;;;;;;21.73;10.37;;;5.70;99.90;;;;;;5030522;28;20223;-64
2021/03/15 01:36:00;;;;;;;23.90;11.10;;;5.70;99.90;;;;;;5034094;28;20196;-65
2021/03/15 01:38:25;;;;;;;24.07;10.57;;;5.80;99.90;;;;;;5034215;28;20240;-64
2021/03/15 01:40:51;;;;;;;25.70;10.27;;;5.80;99.90;;;;;;5034113;28;20180;-65
2021/03/15 01:43:17;;;;;;;20.83;10.57;;;5.80;99.90;;;;;;5034238;28;20180;-66
2021/03/15 01:45:43;;;;;;;20.87;9.73;;;5.80;99.90;;;;;;5034122;28;20592;-64
2021/03/15 01:48:12;;;;;;;13.60;8.87;;;5.70;99.90;;;;;;5034313;28;20187;-65
2021/03/15 01:50:39;;;;;;;19.70;9.77;;;5.70;99.90;;;;;;5033662;28;20190;-67
2021/03/15 01:53:05;;;;;;;19.80;10.13;;;5.70;99.90;;;;;;5034048;28;20206;-64
2021/03/15 01:55:32;;;;;;;19.33;9.57;;;5.70;99.90;;;;;;5034384;28;20207;-66
2021/03/15 01:57:58;;;;;;;21.00;9.50;;;5.70;99.90;;;;;;5034210;28;20171;-64
2021/03/15 02:00:24;;;;;;;23.37;8.87;;;5.60;99.90;;;;;;5033428;28;20179;-65
2021/03/15 02:03:01;;;;;;;11.70;8.03;;;5.60;99.90;;;;;;5034270;28;20218;-66
2021/03/15 02:05:27;;;;;;;10.40;6.70;;;5.50;99.90;;;;;;5033657;28;20214;-67
2021/03/15 02:07:54;;;;;;;16.20;7.63;;;5.50;99.90;;;;;;5033760;28;20214;-66
2021/03/15 02:10:20;;;;;;;10.77;6.27;;;5.50;99.90;;;;;;5033573;28;20956;-65
2021/03/15 02:13:01;;;;;;;13.03;6.87;;;5.50;99.90;;;;;;5033469;28;20199;-65
2021/03/15 02:15:31;;;;;;;9.87;6.80;;;5.50;99.90;;;;;;5033387;28;20206;-68
2021/03/15 02:18:20;;;;;;;15.83;6.60;;;5.50;99.90;;;;;;5033770;28;20183;-65
2021/03/15 02:20:58;;;;;;;19.57;7.67;;;5.50;99.90;;;;;;5033348;28;20180;-66
2021/03/15 02:23:30;;;;;;;14.13;6.23;;;5.50;99.90;;;;;;5033558;28;20190;-65
2021/03/15 02:26:15;;;;;;;15.30;6.33;;;5.50;99.90;;;;;;5033527;28;20195;-64
2021/03/15 02:29:06;;;;;;;9.03;6.53;;;5.40;99.90;;;;;;5033335;28;20202;-66
2021/03/15 02:32:05;;;;;;;18.27;8.03;;;5.50;99.90;;;;;;5032744;28;20175;-66
2021/03/15 02:35:07;;;;;;;17.17;9.43;;;5.50;99.90;;;;;;5013891;28;20199;-65
2021/03/15 02:37:36;;;;;;;14.17;8.13;;;5.50;99.90;;;;;;5013654;28;20179;-65
2021/03/15 02:40:18;;;;;;;13.27;7.80;;;5.60;99.90;;;;;;5016017;28;20187;-66
2021/03/15 02:42:49;;;;;;;12.17;7.67;;;5.50;99.90;;;;;;5032054;28;20203;-65
2021/03/15 02:45:15;;;;;;;14.83;8.63;;;5.50;99.90;;;;;;5033000;28;20202;-67
2021/03/15 02:47:43;;;;;;;14.17;7.90;;;5.50;99.90;;;;;;5033245;28;20179;-67
2021/03/15 02:50:11;;;;;;;10.23;5.93;;;5.50;99.90;;;;;;5032853;28;20180;-67
2021/03/15 02:52:44;;;;;;;14.33;6.30;;;5.60;99.90;;;;;;5033072;28;20540;-67
2021/03/15 02:55:14;;;;;;;9.37;5.77;;;5.60;99.90;;;;;;5033150;28;20191;-67
2021/03/15 02:57:43;;;;;;;10.43;5.77;;;5.60;99.90;;;;;;5033360;28;20168;-67
2021/03/15 03:00:11;;;;;;;7.33;4.93;;;5.60;99.90;;;;;;5033090;28;20266;-67
2021/03/15 03:02:42;;;;;;;8.87;4.90;;;5.70;99.90;;;;;;5034222;28;20244;-66
2021/03/15 03:05:08;;;;;;;9.60;5.27;;;5.70;99.90;;;;;;5033456;28;20218;-67
2021/03/15 03:07:37;;;;;;;8.97;5.20;;;5.70;99.90;;;;;;5033713;28;20269;-67
2021/03/15 03:10:07;;;;;;;10.33;5.37;;;5.70;99.90;;;;;;5033343;28;20544;-68
2021/03/15 03:12:33;;;;;;;8.97;5.50;;;5.70;99.90;;;;;;5032874;28;20199;-66
2021/03/15 03:15:01;;;;;;;7.40;5.60;;;5.70;99.90;;;;;;5033364;28;20199;-67
2021/03/15 03:17:29;;;;;;;7.33;4.93;;;5.70;99.90;;;;;;5032134;28;20190;-67
2021/03/15 03:19:56;;;;;;;12.67;5.50;;;5.70;99.90;;;;;;5032925;28;20170;-66
2021/03/15 03:22:24;;;;;;;11.10;6.20;;;5.70;99.90;;;;;;5032888;28;20722;-67
2021/03/15 03:24:52;;;;;;;13.73;6.80;;;5.70;99.90;;;;;;5033606;28;20221;-67
2021/03/15 03:27:18;;;;;;;14.93;6.97;;;5.70;99.90;;;;;;5033293;28;20637;-67
2021/03/15 03:29:45;;;;;;;12.70;7.30;;;5.70;99.90;;;;;;5033685;28;20179;-66
2021/03/15 03:32:12;;;;;;;17.10;7.90;;;5.80;99.90;;;;;;5033154;28;20206;-65
2021/03/15 03:34:40;;;;;;;11.67;7.20;;;5.80;99.90;;;;;;5033097;28;20211;-67
2021/03/15 03:37:06;;;;;;;12.00;7.97;;;5.70;99.90;;;;;;5033412;28;20180;-67
2021/03/15 03:39:31;;;;;;;12.23;7.83;;;5.70;99.90;;;;;;5033696;28;20246;-66
2021/03/15 03:41:57;;;;;;;11.33;7.53;;;5.70;99.90;;;;;;5033149;28;20206;-66
2021/03/15 03:44:23;;;;;;;12.63;7.53;;;5.80;99.90;;;;;;5033097;28;20182;-67
2021/03/15 03:46:48;;;;;;;14.37;6.87;;;5.80;99.90;;;;;;5032947;28;20582;-67
2021/03/15 03:49:16;;;;;;;9.83;7.43;;;5.80;99.90;;;;;;5033444;28;20186;-67
2021/03/15 03:52:13;;;;;;;10.60;7.70;;;5.80;99.90;;;;;;5032191;28;20182;-66
2021/03/15 03:54:49;;;;;;;11.00;7.57;;;5.80;99.90;;;;;;5027881;28;20198;-67
2021/03/15 03:57:33;;;;;;;11.90;7.83;;;5.90;99.90;;;;;;5013182;28;20172;-67
2021/03/15 04:00:11;;;;;;;13.67;8.03;;;5.80;99.90;;;;;;5017079;28;20582;-67
2021/03/15 04:02:47;;;;;;;10.93;7.50;;;5.80;99.90;;;;;;5032805;28;20195;-66
2021/03/15 04:05:20;;;;;;;12.67;7.53;;;5.80;99.90;;;;;;5032567;28;20199;-67
2021/03/15 04:07:50;;;;;;;12.40;8.10;;;5.80;99.90;;;;;;5032631;28;20174;-66
2021/03/15 04:10:15;;;;;;;14.07;8.70;;;5.80;99.90;;;;;;5031979;28;20186;-66
2021/03/15 04:12:45;;;;;;;12.47;8.50;;;5.90;99.90;;;;;;5032268;28;20184;-67
2021/03/15 04:15:14;;;;;;;13.93;9.10;;;5.80;99.90;;;;;;5032130;28;20183;-67
2021/03/15 04:17:41;;;;;;;22.07;9.83;;;5.80;99.90;;;;;;5032243;28;20577;-67
2021/03/15 04:20:11;;;;;;;17.13;10.57;;;5.90;99.90;;;;;;5031607;28;20233;-67
2021/03/15 04:22:43;;;;;;;19.10;11.33;;;5.90;99.90;;;;;;5032113;28;20176;-66
2021/03/15 04:25:11;;;;;;;18.17;11.03;;;5.90;99.90;;;;;;5032413;28;20207;-66
2021/03/15 04:27:38;;;;;;;18.03;11.93;;;6.00;99.90;;;;;;5032198;28;20198;-67
2021/03/15 04:30:04;;;;;;;23.57;12.40;;;6.00;99.90;;;;;;5031986;28;20179;-66
2021/03/15 04:32:30;;;;;;;22.37;11.37;;;6.00;99.90;;;;;;5030747;28;20195;-67
2021/03/15 04:34:57;;;;;;;19.30;12.23;;;6.10;99.90;;;;;;5031997;28;20198;-67
2021/03/15 04:37:24;;;;;;;17.10;10.67;;;6.10;99.90;;;;;;5032357;28;20227;-66
2021/03/15 04:39:50;;;;;;;21.70;12.20;;;6.00;99.90;;;;;;5031749;28;20183;-67
2021/03/15 04:42:17;;;;;;;19.40;11.73;;;6.10;99.90;;;;;;5032324;28;20163;-67
2021/03/15 04:44:43;;;;;;;23.10;13.07;;;6.00;99.90;;;;;;5032062;28;20191;-66
2021/03/15 04:47:12;;;;;;;24.53;13.60;;;6.00;99.90;;;;;;5031797;28;20205;-67
2021/03/15 04:49:38;;;;;;;18.47;12.53;;;6.00;99.90;;;;;;5031207;28;20656;-67
2021/03/15 04:52:05;;;;;;;21.07;13.40;;;6.00;99.90;;;;;;5030204;28;20660;-67
2021/03/15 04:54:31;;;;;;;23.90;14.47;;;6.00;99.90;;;;;;5031043;28;20186;-67
2021/03/15 04:56:59;;;;;;;23.70;15.27;;;6.00;99.90;;;;;;5031671;28;20657;-67
2021/03/15 04:59:27;;;;;;;22.83;13.17;;;6.00;99.90;;;;;;5032470;28;20667;-67
2021/03/15 05:01:54;;;;;;;27.83;14.73;;;6.00;99.90;;;;;;5030843;28;20186;-67
2021/03/15 05:04:22;;;;;;;22.43;13.17;;;5.90;99.90;;;;;;5032419;28;20175;-67
2021/03/15 05:06:49;;;;;;;19.87;12.93;;;5.90;99.90;;;;;;5032012;28;20292;-67
2021/03/15 05:09:16;;;;;;;17.00;12.60;;;6.00;99.90;;;;;;5032855;28;20259;-67
2021/03/15 05:11:42;;;;;;;21.67;12.73;;;5.90;99.90;;;;;;5035348;28;20234;-66
2021/03/15 05:14:11;;;;;;;22.07;12.83;;;5.90;99.90;;;;;;5035929;28;20617;-67
2021/03/15 05:16:38;;;;;;;16.33;10.57;;;5.90;99.90;;;;;;5035269;28;20195;-67
2021/03/15 05:19:06;;;;;;;18.03;13.33;;;5.90;99.90;;;;;;5036236;28;20332;-67
2021/03/15 05:21:33;;;;;;;17.10;11.67;;;5.90;99.90;;;;;;5035510;28;20198;-66
2021/03/15 05:24:00;;;;;;;21.33;13.47;;;5.90;99.90;;;;;;5035778;28;20172;-67
2021/03/15 05:26:27;;;;;;;16.30;10.20;;;5.90;99.90;;;;;;5035234;28;20199;-66
2021/03/15 05:28:54;;;;;;;17.03;10.13;;;5.80;99.90;;;;;;5035324;28;20168;-67
2021/03/15 05:31:21;;;;;;;16.27;10.30;;;5.70;99.90;;;;;;5035000;28;20254;-67
2021/03/15 05:33:49;;;;;;;16.37;8.67;;;5.70;99.90;;;;;;5035598;28;20206;-68
2021/03/15 05:36:16;;;;;;;13.53;10.30;;;5.60;99.90;;;;;;5035608;28;20566;-67
2021/03/15 05:38:43;;;;;;;15.30;10.73;;;5.60;99.90;;;;;;5035767;28;20171;-67
2021/03/15 05:41:11;;;;;;;14.40;9.50;;;5.50;99.90;;;;;;5035272;28;20255;-67
2021/03/15 05:43:48;;;;;;;15.13;11.03;;;5.50;99.90;;;;;;5035177;28;20172;-67
2021/03/15 05:46:17;;;;;;;15.17;9.77;;;5.50;99.90;;;;;;5035196;28;20207;-66
2021/03/15 05:48:51;;;;;;;10.87;8.10;;;5.40;99.90;;;;;;5034260;28;20191;-65
2021/03/15 05:51:32;;;;;;;14.50;9.10;;;5.40;99.90;;;;;;5033401;28;20189;-67
2021/03/15 05:54:20;;;;;;;16.77;8.77;;;5.40;99.90;;;;;;5035226;28;20704;-67
2021/03/15 05:57:23;;;;;;;15.60;9.50;;;5.30;99.90;;;;;;5023232;28;20223;-67
2021/03/15 06:00:08;;;;;;;13.70;9.87;;;5.30;99.90;;;;;;5034379;28;20678;-67
2021/03/15 06:02:53;;;;;;;15.70;10.70;;;5.30;99.90;;;;;;5033488;28;20183;-66
2021/03/15 06:05:28;;;;;;;16.00;10.90;;;5.30;99.90;;;;;;5034711;28;20195;-65
2021/03/15 06:08:20;;;;;;;18.03;10.87;;;5.20;99.90;;;;;;5034826;28;20182;-66
2021/03/15 06:11:12;;;;;;;19.67;11.43;;;5.30;99.90;;;;;;5033807;28;20281;-67
2021/03/15 06:13:39;;;;;;;17.60;11.87;;;5.30;99.90;;;;;;5034902;28;20231;-66
2021/03/15 06:16:08;;;;;;;17.17;11.73;;;5.30;99.90;;;;;;5033478;28;20657;-67
2021/03/15 06:18:34;;;;;;;19.10;12.67;;;5.30;99.90;;;;;;5033533;28;20186;-67
2021/03/15 06:21:00;;;;;;;20.50;13.17;;;5.30;99.90;;;;;;5033434;28;20260;-66
2021/03/15 06:23:27;;;;;;;18.30;12.37;;;5.40;99.90;;;;;;5033327;28;20222;-66
2021/03/15 06:25:54;;;;;;;18.17;9.80;;;5.40;99.90;;;;;;5033572;28;20206;-66
2021/03/15 06:28:20;;;;;;;18.27;11.97;;;5.30;99.90;;;;;;5033419;28;20172;-67
2021/03/15 06:30:49;;;;;;;14.67;9.67;;;5.40;99.90;;;;;;5032731;28;20183;-66
2021/03/15 06:33:16;;;;;;;16.20;10.73;;;5.40;99.90;;;;;;5033235;28;20206;-66
2021/03/15 06:35:45;;;;;;;18.47;10.90;;;5.40;99.90;;;;;;5033266;28;20192;-66
2021/03/15 06:38:11;;;;;;;19.20;12.03;;;5.40;99.90;;;;;;5033334;28;20535;-65
2021/03/15 06:40:41;;;;;;;17.37;11.27;;;5.40;99.90;;;;;;5033268;28;20182;-66
2021/03/15 06:43:11;;;;;;;17.87;12.20;;;5.40;99.90;;;;;;5033174;28;20175;-65
2021/03/15 06:45:37;;;;;;;20.07;13.63;;;5.50;99.90;;;;;;5022481;28;20779;-66
2021/03/15 06:48:03;;;;;;;19.20;12.93;;;5.50;99.90;;;;;;5033551;28;20195;-66
2021/03/15 06:50:29;;;;;;;15.97;10.43;;;5.50;99.90;;;;;;5032360;28;20171;-65
2021/03/15 06:52:57;;;;;;;17.57;12.20;;;5.60;99.90;;;;;;5032398;28;20544;-65
2021/03/15 06:55:26;;;;;;;15.00;9.40;;;5.60;99.90;;;;;;5033107;28;20215;-65
2021/03/15 06:57:52;;;;;;;17.10;11.07;;;5.60;99.90;;;;;;5032535;28;20253;-66
2021/03/15 07:00:30;;;;;;;14.43;10.87;;;5.70;99.90;;;;;;5032610;28;20291;-65
2021/03/15 07:03:01;;;;;;;15.77;10.70;;;5.80;99.90;;;;;;5032569;28;20273;-65
2021/03/15 07:05:28;;;;;;;15.07;9.63;;;5.80;99.90;;;;;;5032937;28;20203;-66
2021/03/15 07:07:57;;;;;;;18.17;11.67;;;5.80;99.90;;;;;;5032833;28;20176;-65
2021/03/15 07:10:26;;;;;;;20.63;10.90;;;5.80;99.90;;;;;;5031864;28;20178;-65
2021/03/15 07:13:10;;;;;;;18.43;11.00;;;5.80;99.90;;;;;;5032364;28;20219;-65
2021/03/15 07:15:36;;;;;;;14.70;9.73;;;5.80;99.90;;;;;;5031680;28;20321;-64
2021/03/15 07:18:11;;;;;;;17.90;10.20;;;5.80;99.90;;;;;;5032716;28;20195;-65
2021/03/15 07:20:50;;;;;;;18.93;11.27;;;5.80;99.90;;;;;;5031614;28;20266;-66
2021/03/15 07:23:37;;;;;;;16.43;10.13;;;5.80;99.90;;;;;;5031209;28;20270;-65
2021/03/15 07:26:21;;;;;;;14.70;8.70;;;5.90;99.90;;;;;;5032218;28;20226;-67
2021/03/15 07:28:48;;;;;;;16.83;9.93;;;6.20;99.90;;;;;;5031870;28;20191;-66
2021/03/15 07:31:22;;;;;;;11.53;8.97;;;6.40;99.90;;;;;;5031832;28;20176;-66
2021/03/15 07:34:08;;;;;;;13.10;9.63;;;6.70;99.90;;;;;;5031454;28;20671;-66
2021/03/15 07:36:48;;;;;;;14.50;8.17;;;6.90;99.90;;;;;;5031709;28;20198;-66
2021/03/15 07:39:14;;;;;;;15.20;9.27;;;6.80;99.90;;;;;;5031943;28;20532;-66
2021/03/15 07:41:43;;;;;;;15.03;9.20;;;6.70;99.90;;;;;;5032135;28;20163;-68
2021/03/15 07:44:33;;;;;;;15.97;9.10;;;6.60;99.90;;;;;;5031872;28;20180;-67
2021/03/15 07:47:03;;;;;;;16.27;9.17;;;6.60;99.90;;;;;;5031981;28;20229;-66
2021/03/15 07:49:34;;;;;;;12.37;7.90;;;6.60;99.90;;;;;;5012313;28;20598;-67
2021/03/15 07:52:05;;;;;;;14.87;9.23;;;6.90;99.90;;;;;;5012197;28;20199;-66
2021/03/15 07:54:36;;;;;;;13.93;8.37;;;7.20;99.90;;;;;;5031100;28;20228;-68
2021/03/15 07:57:24;;;;;;;10.53;6.93;;;7.30;99.90;;;;;;5032005;28;20198;-66
2021/03/15 07:59:52;;;;;;;10.73;6.30;;;7.50;99.90;;;;;;5011730;28;20585;-67
2021/03/15 08:02:20;;;;;;;10.30;6.93;;;7.60;99.90;;;;;;5012586;28;20196;-67
2021/03/15 08:04:46;;;;;;;9.40;5.17;;;7.70;99.90;;;;;;5011914;28;20562;-68
2021/03/15 08:07:14;;;;;;;9.00;5.67;;;7.80;99.90;;;;;;5011863;28;20175;-65
2021/03/15 08:09:45;;;;;;;9.47;6.37;;;8.10;99.90;;;;;;5030825;28;20176;-66
2021/03/15 08:12:11;;;;;;;16.07;6.50;;;8.40;99.90;;;;;;5031265;28;20210;-66
2021/03/15 08:14:41;;;;;;;6.97;5.07;;;8.50;99.90;;;;;;5031281;28;20275;-68
2021/03/15 08:17:10;;;;;;;11.60;6.73;;;8.60;99.90;;;;;;5030164;28;20633;-65
2021/03/15 08:19:37;;;;;;;8.10;5.10;;;8.90;99.90;;;;;;5031329;28;20170;-66
2021/03/15 08:22:04;;;;;;;10.53;5.03;;;9.20;99.90;;;;;;5030816;28;20715;-67
2021/03/15 08:24:37;;;;;;;8.43;5.40;;;9.70;99.90;;;;;;5031295;28;20183;-67
2021/03/15 08:27:03;;;;;;;8.57;4.17;;;9.80;99.90;;;;;;5031176;28;20183;-65
2021/03/15 08:29:35;;;;;;;9.83;4.30;;;9.60;99.90;;;;;;5031342;28;20266;-66
2021/03/15 08:32:02;;;;;;;10.00;4.53;;;9.00;99.90;;;;;;5030786;28;20704;-65
2021/03/15 08:34:29;;;;;;;10.30;5.60;;;8.70;99.90;;;;;;5031283;28;20611;-65
2021/03/15 08:36:56;;;;;;;10.60;6.30;;;8.50;99.90;;;;;;5030662;28;20201;-66
2021/03/15 08:39:27;;;;;;;8.67;5.13;;;8.30;99.90;;;;;;5031104;28;20175;-66
2021/03/15 08:42:12;;;;;;;11.40;6.07;;;8.20;99.90;;;;;;5031010;28;20202;-67
2021/03/15 08:44:39;;;;;;;6.70;5.13;;;8.00;99.90;;;;;;5032453;28;20179;-66
2021/03/15 08:47:05;;;;;;;13.93;5.80;;;8.00;99.90;;;;;;5034585;22;20596;-64
2021/03/15 08:49:31;;;;;;;5.13;4.63;;;8.20;99.90;;;;;;5015042;28;20172;-64
2021/03/15 08:51:57;;;;;;;9.57;5.67;;;8.60;99.90;;;;;;5015040;28;20176;-64
2021/03/15 08:54:41;;;;;;;7.53;5.80;;;8.60;99.90;;;;;;5015308;28;20660;-64
2021/03/15 08:57:28;;;;;;;8.40;5.53;;;8.60;99.90;;;;;;5015499;28;20258;-65
2021/03/15 08:59:54;;;;;;;7.67;5.10;;;8.60;99.90;;;;;;5014809;28;20186;-64
2021/03/15 09:02:34;;;;;;;8.17;5.53;;;8.50;99.90;;;;;;5015413;28;20172;-64
2021/03/15 09:05:23;;;;;;;10.77;6.73;;;8.40;99.90;;;;;;5015101;28;20653;-64
2021/03/15 09:07:50;;;;;;;8.33;6.33;;;8.20;99.90;;;;;;5014250;28;20662;-64
2021/03/15 09:10:25;;;;;;;9.30;6.00;;;8.00;99.90;;;;;;5014774;28;20607;-64
2021/03/15 09:13:27;;;;;;;11.90;6.83;;;7.90;99.90;;;;;;5014680;28;20199;-65
2021/03/15 09:15:58;;;;;;;10.67;6.30;;;7.90;99.90;;;;;;5000870;28;20211;-64
2021/03/15 09:18:41;;;;;;;8.57;6.03;;;7.90;99.90;;;;;;5011563;28;20216;-64
2021/03/15 09:21:25;;;;;;;9.40;5.10;;;8.10;99.90;;;;;;5014618;28;20184;-64
2021/03/15 09:23:52;;;;;;;8.37;5.37;;;8.40;99.90;;;;;;5014782;28;20190;-65
2021/03/15 09:26:24;;;;;;;9.77;5.50;;;8.60;99.90;;;;;;5014677;28;20224;-64
2021/03/15 09:28:52;;;;;;;9.63;6.70;;;8.50;99.90;;;;;;5014572;28;20181;-64
2021/03/15 09:31:18;;;;;;;10.43;6.07;;;8.40;99.90;;;;;;5014253;28;20210;-65
2021/03/15 09:33:44;;;;;;;8.00;5.60;;;8.10;99.90;;;;;;5014520;28;20203;-65
2021/03/15 09:36:10;;;;;;;14.20;6.20;;;8.00;99.90;;;;;;5014445;28;20278;-65
2021/03/15 09:38:37;;;;;;;9.97;4.80;;;7.80;99.90;;;;;;5014496;28;20600;-64
2021/03/15 09:41:05;;;;;;;11.60;5.10;;;7.70;99.90;;;;;;5014100;28;20179;-64
2021/03/15 09:43:32;;;;;;;5.37;4.50;;;7.70;99.90;;;;;;5014611;28;20645;-65
2021/03/15 09:46:00;;;;;;;6.83;4.60;;;8.00;99.90;;;;;;5013873;28;20222;-64
2021/03/15 09:48:28;;;;;;;5.77;4.30;;;8.40;99.90;;;;;;5014455;28;20547;-65
2021/03/15 09:51:04;;;;;;;7.03;4.33;;;8.40;99.90;;;;;;5013504;28;20208;-65
2021/03/15 09:53:30;;;;;;;10.07;5.73;;;8.40;99.90;;;;;;5014617;28;20203;-65
2021/03/15 09:56:10;;;;;;;5.07;3.00;;;8.40;99.90;;;;;;5013326;28;20279;-65
2021/03/15 09:58:36;;;;;;;8.63;4.10;;;8.40;99.90;;;;;;5014006;28;20168;-64
2021/03/15 10:01:12;;;;;;;8.60;3.90;;;8.40;99.90;;;;;;5011644;28;20176;-64
2021/03/15 10:03:38;;;;;;;8.10;3.97;;;8.60;99.90;;;;;;5013951;28;20234;-65
2021/03/15 10:06:04;;;;;;;8.43;3.43;;;9.20;99.90;;;;;;5014337;28;20204;-65
2021/03/15 10:08:30;;;;;;;7.07;3.27;;;9.70;99.90;;;;;;5013912;28;20188;-64
2021/03/15 10:10:58;;;;;;;6.00;3.13;;;10.00;99.90;;;;;;5013509;28;20172;-64
2021/03/15 10:13:24;;;;;;;5.43;2.37;;;10.60;99.90;;;;;;5013834;28;20218;-64
2021/03/15 10:15:49;;;;;;;6.13;2.20;;;11.10;99.90;;;;;;5013662;28;20211;-65
2021/03/15 10:18:20;;;;;;;5.27;2.10;;;11.10;99.90;;;;;;5013979;28;20638;-64
2021/03/15 10:20:46;;;;;;;5.90;2.37;;;11.00;99.90;;;;;;4993702;28;20172;-64
2021/03/15 10:23:14;;;;;;;5.87;2.30;;;11.10;99.90;;;;;;4993242;28;20176;-64
2021/03/15 10:25:51;;;;;;;5.03;2.13;;;11.10;99.90;;;;;;5013097;28;20282;-64
2021/03/15 10:28:18;;;;;;;8.27;2.23;;;11.20;99.90;;;;;;5013737;28;20653;-64
2021/03/15 10:30:43;;;;;;;7.87;2.47;;;11.50;99.90;;;;;;5012806;28;20180;-63
2021/03/15 10:33:10;;;;;;;6.03;2.33;;;12.00;99.90;;;;;;5013482;28;20207;-64
2021/03/15 10:35:37;;;;;;;3.80;2.10;;;12.20;99.90;;;;;;5013678;28;20195;-64
2021/03/15 10:38:04;;;;;;;6.17;2.20;;;11.70;99.90;;;;;;5013431;28;20168;-64
2021/03/15 10:40:32;;;;;;;7.40;2.93;;;11.10;99.90;;;;;;5013144;28;20263;-64
2021/03/15 10:42:59;;;;;;;3.90;2.77;;;10.80;99.90;;;;;;5013551;28;20250;-64
2021/03/15 10:45:27;;;;;;;6.93;3.10;;;10.70;99.90;;;;;;5013768;28;20196;-64
2021/03/15 10:48:04;;;;;;;5.07;3.30;;;10.40;99.90;;;;;;5014042;28;20290;-64
2021/03/15 10:50:36;;;;;;;3.23;2.40;;;10.10;99.90;;;;;;5014447;28;20718;-64
2021/03/15 10:53:12;;;;;;;10.83;3.23;;;10.10;99.90;;;;;;5014571;28;20211;-64
2021/03/15 10:55:38;;;;;;;7.37;2.97;;;9.90;99.90;;;;;;5012945;28;20236;-64
2021/03/15 10:58:06;;;;;;;7.80;3.33;;;9.50;99.90;;;;;;5013386;28;20187;-64
2021/03/15 11:00:35;;;;;;;6.73;3.10;;;8.30;99.90;;;;;;5012339;28;20257;-65
2021/03/15 11:03:02;;;;;;;4.60;2.70;;;7.00;99.90;;;;;;5013141;28;20199;-65
2021/03/15 11:05:28;;;;;;;7.13;3.03;;;6.40;99.90;;;;;;5012744;28;20354;-65
2021/03/15 11:07:54;;;;;;;6.87;2.63;;;6.00;99.90;;;;;;5012183;28;20172;-65
2021/03/15 11:10:32;;;;;;;2.33;2.10;;;5.80;99.90;;;;;;5012683;28;20230;-65
2021/03/15 11:12:59;;;;;;;4.70;2.73;;;5.70;99.90;;;;;;5011289;28;20259;-65
2021/03/15 11:15:36;;;;;;;9.33;2.20;;;5.80;99.90;;;;;;5012460;28;20203;-65
2021/03/15 11:18:09;;;;;;;2.17;1.80;;;6.30;99.90;;;;;;5013115;28;20179;-65
2021/03/15 11:20:50;;;;;;;2.63;1.83;;;7.10;99.90;;;;;;5012051;28;20643;-65
2021/03/15 11:23:36;;;;;;;4.00;2.13;;;8.00;99.90;;;;;;5012779;28;20222;-65
2021/03/15 11:26:03;;;;;;;3.60;1.90;;;8.70;99.90;;;;;;5012420;28;20530;-65
2021/03/15 11:28:31;;;;;;;5.17;2.07;;;8.80;99.90;;;;;;5012962;28;20172;-65
2021/03/15 11:30:59;;;;;;;2.90;2.20;;;9.10;99.90;;;;;;5011691;28;20234;-65
2021/03/15 11:33:25;;;;;;;5.17;1.73;;;9.40;99.90;;;;;;5012602;28;20192;-65
2021/03/15 11:35:51;;;;;;;1.83;1.63;;;9.70;99.90;;;;;;5010611;28;20192;-65
2021/03/15 11:38:22;;;;;;;2.37;1.50;;;10.10;99.90;;;;;;5012409;28;20234;-64
2021/03/15 11:40:48;;;;;;;2.70;1.77;;;10.50;99.90;;;;;;5012052;28;20646;-65
2021/03/15 11:43:14;;;;;;;5.47;2.00;;;10.80;99.90;;;;;;5012414;28;20199;-64
2021/03/15 11:45:40;;;;;;;5.60;2.10;;;11.30;99.90;;;;;;5011807;28;20692;-64
2021/03/15 11:48:08;;;;;;;7.20;2.70;;;11.50;99.90;;;;;;5012194;28;20509;-65
2021/03/15 11:50:35;;;;;;;2.30;1.83;;;11.60;99.90;;;;;;5011362;28;20535;-65
2021/03/15 11:53:02;;;;;;;6.17;2.27;;;11.60;99.90;;;;;;5012089;28;20302;-65
2021/03/15 11:55:28;;;;;;;4.23;1.93;;;11.80;99.90;;;;;;5011866;28;20720;-64
2021/03/15 11:57:54;;;;;;;3.37;1.97;;;11.50;99.90;;;;;;5011815;28;20184;-65
2021/03/15 12:00:21;;;;;;;4.70;2.30;;;11.40;99.90;;;;;;5011828;28;20187;-64
2021/03/15 12:02:47;;;;;;;8.03;2.30;;;11.00;99.90;;;;;;5011525;28;20566;-64
2021/03/15 12:05:14;;;;;;;6.47;2.30;;;10.70;99.90;;;;;;5011923;28;20182;-64
2021/03/15 12:07:40;;;;;;;5.07;2.10;;;10.80;99.90;;;;;;5011572;28;20186;-64
2021/03/15 12:10:08;;;;;;;4.77;2.13;;;10.80;99.90;;;;;;5010480;28;20183;-64
2021/03/15 12:12:34;;;;;;;4.13;1.87;;;10.80;99.90;;;;;;5010273;28;20322;-64
2021/03/15 12:15:00;;;;;;;5.33;1.77;;;10.70;99.90;;;;;;5011705;28;20586;-64
2021/03/15 12:17:26;;;;;;;5.63;2.00;;;10.70;99.90;;;;;;5011702;28;20176;-64
2021/03/15 12:19:52;;;;;;;6.00;1.83;;;10.90;99.90;;;;;;5011274;28;20208;-64
2021/03/15 12:22:17;;;;;;;8.37;2.20;;;11.40;99.90;;;;;;5011479;28;20203;-64
2021/03/15 12:24:43;;;;;;;3.90;1.97;;;11.60;99.90;;;;;;5011345;28;20610;-64
2021/03/15 12:27:08;;;;;;;5.57;1.90;;;11.30;99.90;;;;;;5011662;28;20258;-64
2021/03/15 12:29:34;;;;;;;6.60;2.20;;;11.00;99.90;;;;;;5011420;28;20259;-64
2021/03/15 12:32:00;;;;;;;4.47;2.03;;;11.00;99.90;;;;;;5009278;28;20549;-65
2021/03/15 12:34:26;;;;;;;4.57;1.80;;;10.70;99.90;;;;;;5011728;28;20208;-64
2021/03/15 12:36:52;;;;;;;6.40;2.40;;;10.70;99.90;;;;;;5011102;28;20204;-64
2021/03/15 12:39:18;;;;;;;7.40;2.07;;;10.50;99.90;;;;;;5011693;28;20176;-64
2021/03/15 12:41:44;;;;;;;5.53;2.00;;;10.30;99.90;;;;;;5010840;28;20195;-65
2021/03/15 12:44:10;;;;;;;6.27;1.80;;;10.30;99.90;;;;;;5011092;28;20558;-64
2021/03/15 12:46:35;;;;;;;2.27;1.47;;;10.30;99.90;;;;;;5011314;28;20223;-64
2021/03/15 12:49:01;;;;;;;2.67;1.53;;;10.60;99.90;;;;;;5011265;28;20187;-64
2021/03/15 12:51:27;;;;;;;2.70;1.83;;;10.70;99.90;;;;;;5011056;28;20649;-64
2021/03/15 12:53:53;;;;;;;2.13;1.50;;;10.70;99.90;;;;;;5010983;28;20216;-64
2021/03/15 12:56:19;;;;;;;2.03;1.20;;;10.60;99.90;;;;;;5011328;28;20192;-64
2021/03/15 12:58:44;;;;;;;2.87;1.33;;;10.60;99.90;;;;;;5010911;28;20173;-64